createdAt,value
2019-03-04T00:00:21.770Z,74.75
2019-03-04T00:01:21.644Z,74.75
2019-03-04T00:02:21.505Z,74.75
2019-03-04T00:03:21.374Z,75.04
2019-03-04T00:04:21.244Z,75.32
2019-03-04T00:05:21.117Z,75.13
2019-03-04T00:06:20.980Z,75.79
2019-03-04T00:07:20.849Z,76.27
2019-03-04T00:08:20.720Z,75.89
2019-03-04T00:09:20.591Z,75.70
2019-03-04T00:10:20.457Z,74.66
2019-03-04T00:11:20.328Z,74.85
2019-03-04T00:12:20.194Z,74.66
2019-03-04T00:13:20.064Z,74.95
2019-03-04T00:14:19.935Z,74.75
2019-03-04T00:15:19.803Z,73.90
2019-03-04T00:16:19.715Z,73.99
2019-03-04T00:17:19.539Z,74.09
2019-03-04T00:18:19.407Z,73.99
2019-03-04T00:19:19.280Z,73.99
2019-03-04T00:20:19.152Z,72.67
2019-03-04T00:21:19.017Z,71.81
2019-03-04T00:22:18.885Z,72.10
2019-03-04T00:23:18.754Z,72.19
2019-03-04T00:24:18.622Z,73.24
2019-03-04T00:25:18.489Z,74.37
2019-03-04T00:26:18.359Z,74.28
2019-03-04T00:27:18.230Z,73.80
2019-03-04T00:28:18.098Z,75.04
2019-03-04T00:29:17.971Z,75.04
2019-03-04T00:30:17.834Z,74.37
2019-03-04T00:31:17.702Z,73.52
2019-03-04T00:32:17.574Z,72.77
2019-03-04T00:33:17.443Z,73.33
2019-03-04T00:34:17.311Z,73.14
2019-03-04T00:35:17.180Z,74.18
2019-03-04T00:36:17.047Z,75.79
2019-03-04T00:37:16.917Z,75.42
2019-03-04T00:38:16.786Z,75.13
2019-03-04T00:39:16.655Z,75.51
2019-03-04T00:40:16.524Z,75.98
2019-03-04T00:41:16.393Z,76.27
2019-03-04T00:42:16.261Z,76.84
2019-03-04T00:43:16.133Z,77.22
2019-03-04T00:44:16.002Z,77.94
2019-03-04T00:45:15.868Z,77.97
2019-03-04T00:46:15.738Z,77.97
2019-03-04T00:47:15.607Z,76.08
2019-03-04T00:48:15.475Z,72.29
2019-03-04T00:49:15.348Z,71.62
2019-03-04T00:50:15.213Z,70.20
2019-03-04T00:51:15.083Z,72.29
2019-03-04T00:52:14.951Z,72.86
2019-03-04T00:53:14.818Z,73.71
2019-03-04T00:54:14.691Z,72.96
2019-03-04T00:55:14.556Z,73.33
2019-03-04T00:56:14.427Z,74.09
2019-03-04T00:57:14.297Z,74.75
2019-03-04T00:58:15.011Z,74.66
2019-03-04T00:59:14.050Z,73.90
2019-03-04T01:00:13.900Z,73.99
2019-03-04T01:01:13.770Z,74.09
2019-03-04T01:02:13.641Z,72.96
2019-03-04T01:03:13.507Z,73.33
2019-03-04T01:04:13.374Z,74.09
2019-03-04T01:05:13.244Z,73.71
2019-03-04T01:06:13.114Z,73.80
2019-03-04T01:07:12.981Z,75.42
2019-03-04T01:08:12.851Z,75.98
2019-03-04T01:09:12.719Z,75.42
2019-03-04T01:10:12.590Z,74.95
2019-03-04T01:11:12.457Z,74.85
2019-03-04T01:12:12.325Z,75.51
2019-03-04T01:13:12.197Z,76.17
2019-03-04T01:14:12.064Z,76.36
2019-03-04T01:15:11.931Z,77.22
2019-03-04T01:16:11.800Z,76.08
2019-03-04T01:17:11.672Z,75.89
2019-03-04T01:18:11.537Z,75.23
2019-03-04T01:19:11.412Z,74.85
2019-03-04T01:20:11.277Z,73.90
2019-03-04T01:21:11.149Z,73.52
2019-03-04T01:22:11.014Z,74.18
2019-03-04T01:23:10.882Z,73.43
2019-03-04T01:24:10.754Z,72.86
2019-03-04T01:25:10.621Z,72.67
2019-03-04T01:26:10.489Z,72.57
2019-03-04T01:27:11.021Z,72.38
2019-03-04T01:28:10.227Z,71.81
2019-03-04T01:29:10.095Z,72.57
2019-03-04T01:30:09.965Z,72.19
2019-03-04T01:31:09.836Z,71.25
2019-03-04T01:32:09.709Z,72.00
2019-03-04T01:33:09.571Z,72.38
2019-03-04T01:34:09.445Z,69.64
2019-03-04T01:35:09.311Z,69.54
2019-03-04T01:36:09.181Z,69.92
2019-03-04T01:37:09.049Z,71.62
2019-03-04T01:38:08.919Z,72.19
2019-03-04T01:39:08.785Z,72.57
2019-03-04T01:40:08.654Z,72.86
2019-03-04T01:41:08.527Z,73.43
2019-03-04T01:42:08.393Z,71.81
2019-03-04T01:43:08.262Z,71.34
2019-03-04T01:44:08.131Z,70.20
2019-03-04T01:45:07.999Z,70.20
2019-03-04T01:46:07.868Z,70.58
2019-03-04T01:47:07.737Z,71.34
2019-03-04T01:48:07.604Z,71.81
2019-03-04T01:49:07.476Z,71.81
2019-03-04T01:50:07.343Z,71.15
2019-03-04T01:51:07.211Z,71.53
2019-03-04T01:52:07.083Z,70.39
2019-03-04T01:53:06.951Z,70.58
2019-03-04T01:54:06.822Z,70.87
2019-03-04T01:55:06.688Z,69.54
2019-03-04T01:56:07.030Z,69.92
2019-03-04T01:57:06.426Z,69.26
2019-03-04T01:58:06.293Z,68.88
2019-03-04T01:59:06.162Z,68.98
2019-03-04T02:00:06.036Z,68.79
2019-03-04T02:01:05.900Z,68.40
2019-03-04T02:02:05.771Z,68.79
2019-03-04T02:03:05.639Z,68.31
2019-03-04T02:04:05.506Z,69.64
2019-03-04T02:05:05.421Z,70.20
2019-03-04T02:06:05.246Z,69.17
2019-03-04T02:07:05.117Z,69.45
2019-03-04T02:08:04.994Z,68.79
2019-03-04T02:09:04.858Z,69.26
2019-03-04T02:10:04.722Z,70.58
2019-03-04T02:11:04.591Z,70.01
2019-03-04T02:12:04.458Z,69.73
2019-03-04T02:13:04.326Z,69.73
2019-03-04T02:14:04.195Z,69.17
2019-03-04T02:15:04.065Z,69.35
2019-03-04T02:16:03.933Z,69.26
2019-03-04T02:17:03.802Z,69.45
2019-03-04T02:18:03.675Z,68.50
2019-03-04T02:19:03.543Z,68.02
2019-03-04T02:20:03.409Z,70.01
2019-03-04T02:21:03.279Z,70.01
2019-03-04T02:22:03.147Z,71.15
2019-03-04T02:23:03.014Z,70.01
2019-03-04T02:24:02.885Z,69.73
2019-03-04T02:25:03.022Z,68.02
2019-03-04T02:26:02.621Z,66.99
2019-03-04T02:27:02.491Z,68.31
2019-03-04T02:28:02.360Z,68.31
2019-03-04T02:29:02.233Z,69.54
2019-03-04T02:30:02.105Z,69.73
2019-03-04T02:31:01.968Z,70.20
2019-03-04T02:32:01.843Z,71.15
2019-03-04T02:33:01.705Z,71.44
2019-03-04T02:34:01.580Z,69.45
2019-03-04T02:35:01.448Z,68.79
2019-03-04T02:36:01.318Z,68.59
2019-03-04T02:37:01.183Z,69.26
2019-03-04T02:38:01.049Z,68.69
2019-03-04T02:39:00.923Z,68.69
2019-03-04T02:40:00.802Z,68.40
2019-03-04T02:41:00.660Z,70.01
2019-03-04T02:42:00.527Z,69.17
2019-03-04T02:43:00.394Z,66.99
2019-03-04T02:44:00.263Z,66.32
2019-03-04T02:45:00.383Z,66.22
2019-03-04T02:46:00.000Z,67.36
2019-03-04T02:46:59.869Z,66.51
2019-03-04T02:47:59.741Z,65.66
2019-03-04T02:48:59.610Z,65.75
2019-03-04T02:49:59.488Z,66.13
2019-03-04T02:50:59.347Z,66.51
2019-03-04T02:51:59.215Z,66.51
2019-03-04T02:52:59.110Z,66.41
2019-03-04T02:53:59.039Z,66.13
2019-03-04T02:54:58.821Z,65.66
2019-03-04T02:55:58.690Z,65.00
2019-03-04T02:56:58.560Z,66.13
2019-03-04T02:57:58.430Z,67.36
2019-03-04T02:58:58.299Z,68.69
2019-03-04T02:59:58.171Z,67.74
2019-03-04T03:00:58.035Z,68.50
2019-03-04T03:01:57.901Z,68.59
2019-03-04T03:02:57.769Z,70.07
2019-03-04T03:03:57.642Z,70.07
2019-03-04T03:04:57.509Z,70.74
2019-03-04T03:05:57.378Z,71.50
2019-03-04T03:06:57.248Z,71.88
2019-03-04T03:07:57.128Z,71.78
2019-03-04T03:08:56.990Z,70.93
2019-03-04T03:09:56.852Z,68.08
2019-03-04T03:10:56.727Z,67.36
2019-03-04T03:11:56.591Z,66.22
2019-03-04T03:12:56.459Z,66.13
2019-03-04T03:13:56.330Z,67.18
2019-03-04T03:14:56.205Z,68.21
2019-03-04T03:15:56.068Z,67.27
2019-03-04T03:16:55.936Z,67.08
2019-03-04T03:17:55.804Z,68.12
2019-03-04T03:18:55.673Z,68.40
2019-03-04T03:19:55.542Z,68.56
2019-03-04T03:20:55.420Z,66.99
2019-03-04T03:21:55.280Z,66.70
2019-03-04T03:22:55.146Z,66.99
2019-03-04T03:23:55.015Z,67.08
2019-03-04T03:24:54.883Z,66.51
2019-03-04T03:25:54.752Z,66.80
2019-03-04T03:26:54.625Z,66.32
2019-03-04T03:27:54.489Z,66.03
2019-03-04T03:28:54.365Z,67.08
2019-03-04T03:29:54.229Z,67.18
2019-03-04T03:30:54.108Z,65.56
2019-03-04T03:31:53.971Z,64.33
2019-03-04T03:32:53.839Z,63.39
2019-03-04T03:33:53.714Z,63.95
2019-03-04T03:34:53.572Z,65.19
2019-03-04T03:35:53.441Z,66.41
2019-03-04T03:36:53.309Z,67.36
2019-03-04T03:37:53.184Z,67.27
2019-03-04T03:38:53.047Z,67.36
2019-03-04T03:39:52.915Z,68.02
2019-03-04T03:40:52.782Z,66.80
2019-03-04T03:41:52.654Z,66.13
2019-03-04T03:42:52.521Z,66.51
2019-03-04T03:43:52.393Z,66.89
2019-03-04T03:44:52.260Z,66.13
2019-03-04T03:45:52.126Z,65.75
2019-03-04T03:46:51.996Z,64.90
2019-03-04T03:47:51.866Z,64.61
2019-03-04T03:48:51.732Z,63.76
2019-03-04T03:49:51.606Z,63.95
2019-03-04T03:50:51.474Z,64.33
2019-03-04T03:51:51.338Z,64.52
2019-03-04T03:52:51.210Z,64.71
2019-03-04T03:53:51.078Z,63.39
2019-03-04T03:54:50.947Z,63.29
2019-03-04T03:55:50.817Z,63.76
2019-03-04T03:56:50.688Z,63.95
2019-03-04T03:57:50.554Z,63.95
2019-03-04T03:58:50.424Z,64.23
2019-03-04T03:59:50.294Z,64.04
2019-03-04T04:00:50.160Z,63.29
2019-03-04T04:01:50.106Z,64.42
2019-03-04T04:02:49.896Z,65.56
2019-03-04T04:03:49.769Z,66.22
2019-03-04T04:04:49.634Z,65.28
2019-03-04T04:05:49.501Z,63.89
2019-03-04T04:06:49.374Z,61.80
2019-03-04T04:07:49.240Z,61.90
2019-03-04T04:08:49.109Z,61.99
2019-03-04T04:09:48.979Z,61.99
2019-03-04T04:10:48.858Z,62.37
2019-03-04T04:11:48.717Z,63.32
2019-03-04T04:12:48.585Z,61.99
2019-03-04T04:13:48.455Z,61.52
2019-03-04T04:14:48.324Z,62.85
2019-03-04T04:15:48.194Z,64.08
2019-03-04T04:16:48.062Z,63.79
2019-03-04T04:17:47.929Z,63.42
2019-03-04T04:18:47.804Z,63.98
2019-03-04T04:19:47.707Z,63.79
2019-03-04T04:20:47.539Z,64.08
2019-03-04T04:21:47.407Z,64.36
2019-03-04T04:22:47.289Z,63.98
2019-03-04T04:23:47.146Z,63.70
2019-03-04T04:24:47.020Z,63.13
2019-03-04T04:25:46.886Z,61.43
2019-03-04T04:26:46.757Z,61.33
2019-03-04T04:27:46.633Z,60.76
2019-03-04T04:28:46.495Z,60.28
2019-03-04T04:29:46.362Z,60.38
2019-03-04T04:30:46.229Z,60.95
2019-03-04T04:31:46.100Z,61.14
2019-03-04T04:32:45.970Z,61.90
2019-03-04T04:33:45.837Z,62.37
2019-03-04T04:34:45.708Z,63.13
2019-03-04T04:35:45.577Z,63.60
2019-03-04T04:36:45.446Z,61.33
2019-03-04T04:37:45.317Z,60.86
2019-03-04T04:38:45.186Z,63.32
2019-03-04T04:39:45.055Z,63.51
2019-03-04T04:40:44.925Z,64.84
2019-03-04T04:41:44.792Z,65.59
2019-03-04T04:42:44.663Z,64.36
2019-03-04T04:43:44.532Z,64.08
2019-03-04T04:44:44.400Z,63.60
2019-03-04T04:45:44.276Z,62.47
2019-03-04T04:46:44.138Z,62.56
2019-03-04T04:47:44.012Z,63.13
2019-03-04T04:48:43.878Z,63.32
2019-03-04T04:49:43.747Z,63.32
2019-03-04T04:50:43.618Z,60.95
2019-03-04T04:51:43.495Z,59.91
2019-03-04T04:52:43.355Z,59.91
2019-03-04T04:53:43.223Z,59.34
2019-03-04T04:54:43.093Z,60.28
2019-03-04T04:55:42.964Z,60.28
2019-03-04T04:56:42.832Z,60.38
2019-03-04T04:57:42.709Z,60.00
2019-03-04T04:58:42.572Z,60.64
2019-03-04T04:59:42.446Z,60.73
2019-03-04T05:00:42.348Z,61.77
2019-03-04T05:01:42.180Z,64.23
2019-03-04T05:02:42.053Z,65.56
2019-03-04T05:03:41.924Z,66.13
2019-03-04T05:04:41.790Z,65.37
2019-03-04T05:05:41.662Z,65.00
2019-03-04T05:06:41.529Z,65.09
2019-03-04T05:07:41.398Z,66.13
2019-03-04T05:08:41.267Z,65.84
2019-03-04T05:09:41.135Z,65.19
2019-03-04T05:10:41.005Z,65.19
2019-03-04T05:11:40.876Z,65.66
2019-03-04T05:12:40.743Z,65.56
2019-03-04T05:13:40.614Z,64.71
2019-03-04T05:14:40.483Z,65.47
2019-03-04T05:15:40.351Z,64.23
2019-03-04T05:16:40.221Z,63.89
2019-03-04T05:17:40.090Z,65.50
2019-03-04T05:18:39.959Z,64.46
2019-03-04T05:19:39.830Z,65.22
2019-03-04T05:20:39.697Z,65.31
2019-03-04T05:21:39.566Z,64.27
2019-03-04T05:22:39.438Z,63.98
2019-03-04T05:23:39.307Z,63.70
2019-03-04T05:24:39.174Z,63.23
2019-03-04T05:25:39.045Z,63.42
2019-03-04T05:26:38.917Z,63.13
2019-03-04T05:27:38.784Z,63.13
2019-03-04T05:28:38.652Z,61.80
2019-03-04T05:29:38.521Z,61.61
2019-03-04T05:30:38.392Z,61.99
2019-03-04T05:31:38.261Z,62.47
2019-03-04T05:32:38.129Z,61.71
2019-03-04T05:33:38.000Z,61.90
2019-03-04T05:34:37.871Z,61.90
2019-03-04T05:35:37.735Z,62.75
2019-03-04T05:36:37.606Z,63.70
2019-03-04T05:37:37.473Z,64.27
2019-03-04T05:38:37.344Z,63.89
2019-03-04T05:39:37.214Z,63.42
2019-03-04T05:40:37.186Z,63.32
2019-03-04T05:41:36.963Z,62.08
2019-03-04T05:42:36.821Z,62.56
2019-03-04T05:43:36.690Z,62.47
2019-03-04T05:44:36.562Z,62.56
2019-03-04T05:45:36.431Z,63.13
2019-03-04T05:46:36.299Z,62.85
2019-03-04T05:47:36.169Z,62.94
2019-03-04T05:48:36.040Z,62.94
2019-03-04T05:49:35.909Z,62.56
2019-03-04T05:50:35.778Z,62.94
2019-03-04T05:51:35.646Z,63.89
2019-03-04T05:52:35.520Z,64.93
2019-03-04T05:53:35.384Z,64.74
2019-03-04T05:54:35.257Z,64.74
2019-03-04T05:55:35.122Z,65.31
2019-03-04T05:56:34.996Z,65.97
2019-03-04T05:57:34.863Z,65.88
2019-03-04T05:58:34.732Z,64.84
2019-03-04T05:59:34.601Z,64.65
2019-03-04T06:00:34.471Z,64.74
2019-03-04T06:01:34.343Z,64.17
2019-03-04T06:02:34.209Z,65.03
2019-03-04T06:03:34.079Z,63.79
2019-03-04T06:04:33.958Z,63.13
2019-03-04T06:05:33.817Z,62.18
2019-03-04T06:06:33.687Z,62.94
2019-03-04T06:07:33.556Z,61.43
2019-03-04T06:08:33.428Z,60.67
2019-03-04T06:09:33.294Z,62.28
2019-03-04T06:10:33.166Z,62.56
2019-03-04T06:11:33.034Z,61.80
2019-03-04T06:12:32.902Z,61.99
2019-03-04T06:13:32.770Z,61.90
2019-03-04T06:14:32.639Z,60.76
2019-03-04T06:15:32.510Z,61.33
2019-03-04T06:16:32.378Z,60.57
2019-03-04T06:17:33.178Z,61.61
2019-03-04T06:18:32.121Z,61.61
2019-03-04T06:19:31.992Z,61.52
2019-03-04T06:20:31.856Z,62.94
2019-03-04T06:21:31.724Z,63.32
2019-03-04T06:22:31.594Z,63.79
2019-03-04T06:23:31.462Z,63.79
2019-03-04T06:24:31.334Z,63.32
2019-03-04T06:25:31.214Z,63.79
2019-03-04T06:26:31.071Z,63.32
2019-03-04T06:27:30.939Z,63.04
2019-03-04T06:28:30.808Z,61.14
2019-03-04T06:29:30.685Z,61.61
2019-03-04T06:30:30.547Z,61.80
2019-03-04T06:31:30.417Z,63.23
2019-03-04T06:32:30.287Z,62.66
2019-03-04T06:33:30.155Z,61.52
2019-03-04T06:34:30.024Z,61.99
2019-03-04T06:35:29.895Z,62.85
2019-03-04T06:36:29.766Z,61.90
2019-03-04T06:37:29.632Z,61.24
2019-03-04T06:38:29.500Z,62.66
2019-03-04T06:39:29.377Z,62.37
2019-03-04T06:40:29.241Z,63.42
2019-03-04T06:41:29.115Z,63.51
2019-03-04T06:42:28.979Z,61.71
2019-03-04T06:43:28.851Z,60.76
2019-03-04T06:44:28.716Z,61.05
2019-03-04T06:45:28.587Z,59.15
2019-03-04T06:46:29.175Z,58.29
2019-03-04T06:47:28.324Z,58.33
2019-03-04T06:48:28.199Z,57.85
2019-03-04T06:49:28.068Z,55.96
2019-03-04T06:50:27.942Z,57.19
2019-03-04T06:51:27.834Z,59.75
2019-03-04T06:52:27.674Z,60.31
2019-03-04T06:53:27.544Z,58.33
2019-03-04T06:54:27.437Z,60.22
2019-03-04T06:55:27.285Z,61.55
2019-03-04T06:56:27.152Z,61.36
2019-03-04T06:57:28.628Z,61.17
2019-03-04T06:58:26.892Z,59.94
2019-03-04T06:59:26.760Z,59.37
2019-03-04T07:00:26.630Z,59.88
2019-03-04T07:01:26.534Z,61.27
2019-03-04T07:02:26.372Z,63.01
2019-03-04T07:03:26.245Z,63.07
2019-03-04T07:04:26.113Z,61.96
2019-03-04T07:05:25.980Z,59.97
2019-03-04T07:06:25.853Z,59.21
2019-03-04T07:07:25.722Z,60.16
2019-03-04T07:08:25.593Z,60.63
2019-03-04T07:09:25.462Z,60.92
2019-03-04T07:10:25.332Z,61.58
2019-03-04T07:11:25.203Z,61.20
2019-03-04T07:12:25.072Z,62.43
2019-03-04T07:13:24.940Z,63.29
2019-03-04T07:14:24.813Z,60.73
2019-03-04T07:15:25.185Z,60.92
2019-03-04T07:16:24.558Z,61.49
2019-03-04T07:17:24.423Z,61.87
2019-03-04T07:18:24.293Z,62.05
2019-03-04T07:19:24.163Z,60.92
2019-03-04T07:20:24.048Z,57.79
2019-03-04T07:21:23.906Z,55.16
2019-03-04T07:22:23.774Z,48.51
2019-03-04T07:23:23.646Z,43.69
2019-03-04T07:24:23.517Z,41.81
2019-03-04T07:25:23.388Z,42.29
2019-03-04T07:26:23.257Z,42.00
2019-03-04T07:27:23.130Z,42.19
2019-03-04T07:28:23.001Z,42.19
2019-03-04T07:29:22.872Z,43.52
2019-03-04T07:30:22.743Z,44.83
2019-03-04T07:31:22.616Z,46.64
2019-03-04T07:32:22.485Z,50.62
2019-03-04T07:33:22.357Z,54.05
2019-03-04T07:34:22.230Z,53.95
2019-03-04T07:35:22.101Z,54.43
2019-03-04T07:36:21.971Z,54.71
2019-03-04T07:37:21.844Z,54.87
2019-03-04T07:38:21.715Z,56.23
2019-03-04T07:39:21.586Z,58.00
2019-03-04T07:40:21.457Z,58.29
2019-03-04T07:41:21.327Z,56.20
2019-03-04T07:42:21.203Z,52.22
2019-03-04T07:43:21.070Z,51.45
2019-03-04T07:44:21.198Z,51.86
2019-03-04T07:45:20.813Z,53.47
2019-03-04T07:46:20.686Z,53.41
2019-03-04T07:47:20.606Z,49.79
2019-03-04T07:48:20.429Z,47.54
2019-03-04T07:49:20.303Z,47.16
2019-03-04T07:50:20.174Z,44.52
2019-03-04T07:51:20.047Z,42.69
2019-03-04T07:52:19.921Z,42.14
2019-03-04T07:53:19.795Z,41.57
2019-03-04T07:54:19.664Z,40.92
2019-03-04T07:55:19.536Z,38.62
2019-03-04T07:56:19.415Z,38.81
2019-03-04T07:57:19.283Z,40.43
2019-03-04T07:58:19.152Z,41.09
2019-03-04T07:59:19.030Z,40.52
2019-03-04T08:00:18.899Z,40.33
2019-03-04T08:01:18.773Z,41.28
2019-03-04T08:02:18.649Z,43.19
2019-03-04T08:03:18.521Z,42.90
2019-03-04T08:04:18.401Z,43.11
2019-03-04T08:05:18.271Z,43.21
2019-03-04T08:06:18.143Z,43.21
2019-03-04T08:07:18.014Z,43.02
2019-03-04T08:08:17.888Z,42.44
2019-03-04T08:09:17.764Z,41.42
2019-03-04T08:10:17.635Z,41.04
2019-03-04T08:11:17.516Z,40.56
2019-03-04T08:12:17.384Z,40.87
2019-03-04T08:13:17.260Z,40.11
2019-03-04T08:14:17.134Z,40.39
2019-03-04T08:15:17.012Z,40.97
2019-03-04T08:16:16.885Z,37.92
2019-03-04T08:17:16.755Z,36.12
2019-03-04T08:18:16.634Z,35.93
2019-03-04T08:19:16.507Z,35.84
2019-03-04T08:20:16.382Z,38.51
2019-03-04T08:21:16.256Z,39.56
2019-03-04T08:22:16.130Z,39.08
2019-03-04T08:23:16.006Z,38.41
2019-03-04T08:24:15.884Z,38.32
2019-03-04T08:25:15.757Z,37.27
2019-03-04T08:26:15.634Z,37.27
2019-03-04T08:27:15.509Z,37.08
2019-03-04T08:28:15.383Z,37.46
2019-03-04T08:29:15.260Z,37.93
2019-03-04T08:30:15.133Z,38.43
2019-03-04T08:31:15.011Z,38.15
2019-03-04T08:32:14.890Z,37.95
2019-03-04T08:33:14.762Z,36.05
2019-03-04T08:34:14.638Z,34.90
2019-03-04T08:35:14.518Z,34.42
2019-03-04T08:36:14.391Z,35.49
2019-03-04T08:37:14.274Z,36.35
2019-03-04T08:38:14.142Z,36.07
2019-03-04T08:39:14.018Z,34.92
2019-03-04T08:40:13.896Z,35.00
2019-03-04T08:41:13.770Z,35.28
2019-03-04T08:42:13.646Z,35.19
2019-03-04T08:43:13.524Z,35.95
2019-03-04T08:44:13.404Z,36.05
2019-03-04T08:45:13.277Z,34.60
2019-03-04T08:46:13.159Z,33.26
2019-03-04T08:47:13.031Z,34.69
2019-03-04T08:48:12.911Z,35.76
2019-03-04T08:49:12.787Z,35.86
2019-03-04T08:50:12.662Z,37.40
2019-03-04T08:51:12.536Z,35.87
2019-03-04T08:52:12.415Z,35.02
2019-03-04T08:53:12.291Z,34.54
2019-03-04T08:54:12.168Z,33.37
2019-03-04T08:55:12.046Z,32.92
2019-03-04T08:56:12.449Z,34.44
2019-03-04T08:57:11.797Z,34.44
2019-03-04T08:58:11.674Z,34.84
2019-03-04T08:59:11.550Z,33.31
2019-03-04T09:00:11.429Z,33.14
2019-03-04T09:01:11.302Z,32.37
2019-03-04T09:02:11.182Z,32.76
2019-03-04T09:03:11.061Z,33.35
2019-03-04T09:04:10.938Z,32.97
2019-03-04T09:05:10.815Z,32.20
2019-03-04T09:06:10.693Z,31.16
2019-03-04T09:07:10.569Z,31.74
2019-03-04T09:08:10.447Z,31.53
2019-03-04T09:09:10.322Z,32.01
2019-03-04T09:10:10.201Z,31.04
2019-03-04T09:11:10.080Z,32.57
2019-03-04T09:12:09.957Z,32.17
2019-03-04T09:13:09.834Z,33.04
2019-03-04T09:14:09.713Z,33.42
2019-03-04T09:15:09.591Z,34.09
2019-03-04T09:16:09.469Z,34.57
2019-03-04T09:17:10.741Z,34.30
2019-03-04T09:18:09.225Z,33.64
2019-03-04T09:19:09.102Z,33.83
2019-03-04T09:20:08.993Z,35.05
2019-03-04T09:21:08.856Z,35.24
2019-03-04T09:22:08.736Z,35.53
2019-03-04T09:23:08.616Z,35.72
2019-03-04T09:24:08.490Z,35.89
2019-03-04T09:25:08.368Z,34.92
2019-03-04T09:26:08.247Z,36.27
2019-03-04T09:27:08.125Z,36.27
2019-03-04T09:28:08.006Z,35.68
2019-03-04T09:29:07.895Z,35.02
2019-03-04T09:30:07.754Z,35.70
2019-03-04T09:31:07.635Z,35.05
2019-03-04T09:32:07.514Z,35.74
2019-03-04T09:33:07.389Z,34.49
2019-03-04T09:34:07.266Z,35.08
2019-03-04T09:35:07.144Z,34.32
2019-03-04T09:36:07.024Z,33.94
2019-03-04T09:37:06.901Z,33.56
2019-03-04T09:38:06.830Z,33.94
2019-03-04T09:39:06.656Z,34.80
2019-03-04T09:40:06.533Z,34.32
2019-03-04T09:41:07.247Z,34.03
2019-03-04T09:42:06.289Z,33.94
2019-03-04T09:43:06.173Z,33.84
2019-03-04T09:44:06.049Z,33.56
2019-03-04T09:45:05.926Z,33.54
2019-03-04T09:46:05.804Z,34.20
2019-03-04T09:47:05.683Z,34.88
2019-03-04T09:48:05.559Z,35.74
2019-03-04T09:49:05.437Z,35.06
2019-03-04T09:50:05.314Z,34.97
2019-03-04T09:51:05.254Z,35.83
2019-03-04T09:52:05.072Z,35.66
2019-03-04T09:53:04.957Z,34.97
2019-03-04T09:54:04.829Z,34.88
2019-03-04T09:55:04.707Z,35.06
2019-03-04T09:56:04.585Z,34.69
2019-03-04T09:57:04.460Z,34.97
2019-03-04T09:58:04.347Z,35.64
2019-03-04T09:59:04.218Z,35.26
2019-03-04T10:00:04.098Z,35.64
2019-03-04T10:01:03.974Z,35.55
2019-03-04T10:02:03.852Z,35.75
2019-03-04T10:03:03.732Z,35.66
2019-03-04T10:04:03.612Z,34.99
2019-03-04T10:05:03.488Z,35.75
2019-03-04T10:06:03.363Z,35.66
2019-03-04T10:07:03.242Z,35.85
2019-03-04T10:08:03.122Z,35.75
2019-03-04T10:09:02.999Z,35.93
2019-03-04T10:10:03.248Z,36.29
2019-03-04T10:11:02.761Z,36.56
2019-03-04T10:12:02.633Z,37.42
2019-03-04T10:13:02.510Z,39.14
2019-03-04T10:14:02.390Z,38.54
2019-03-04T10:15:08.462Z,38.71
2019-03-04T10:16:02.147Z,39.17
2019-03-04T10:17:02.022Z,39.75
2019-03-04T10:18:01.912Z,40.80
2019-03-04T10:19:01.778Z,40.60
2019-03-04T10:20:01.652Z,41.17
2019-03-04T10:21:01.531Z,41.53
2019-03-04T10:22:01.406Z,41.72
2019-03-04T10:23:01.286Z,42.20
2019-03-04T10:24:01.158Z,42.20
2019-03-04T10:25:01.036Z,42.49
2019-03-04T10:26:00.910Z,43.44
2019-03-04T10:27:00.791Z,43.46
2019-03-04T10:28:00.676Z,43.56
2019-03-04T10:29:02.201Z,43.27
2019-03-04T10:30:00.415Z,42.32
2019-03-04T10:31:00.290Z,42.80
2019-03-04T10:32:00.163Z,42.20
2019-03-04T10:33:00.098Z,43.25
2019-03-04T10:33:59.913Z,43.44
2019-03-04T10:34:59.793Z,43.25
2019-03-04T10:35:59.665Z,44.01
2019-03-04T10:36:59.538Z,44.39
2019-03-04T10:37:59.414Z,44.30
2019-03-04T10:38:59.291Z,44.70
2019-03-04T10:39:59.167Z,43.94
2019-03-04T10:40:59.038Z,43.25
2019-03-04T10:41:58.915Z,44.80
2019-03-04T10:42:58.791Z,44.60
2019-03-04T10:43:58.666Z,45.28
2019-03-04T10:44:58.539Z,45.06
2019-03-04T10:45:58.417Z,45.75
2019-03-04T10:46:58.293Z,46.23
2019-03-04T10:47:58.170Z,45.56
2019-03-04T10:48:58.039Z,45.44
2019-03-04T10:49:57.916Z,45.37
2019-03-04T10:50:57.792Z,46.04
2019-03-04T10:51:57.665Z,44.87
2019-03-04T10:52:57.541Z,45.06
2019-03-04T10:53:57.415Z,45.54
2019-03-04T10:54:57.290Z,46.20
2019-03-04T10:55:57.165Z,47.37
2019-03-04T10:56:57.043Z,47.18
2019-03-04T10:57:56.918Z,46.32
2019-03-04T10:58:56.793Z,47.28
2019-03-04T10:59:56.666Z,46.42
2019-03-04T11:00:56.541Z,47.18
2019-03-04T11:01:56.414Z,47.08
2019-03-04T11:02:56.294Z,46.92
2019-03-04T11:03:56.169Z,47.11
2019-03-04T11:04:56.090Z,46.94
2019-03-04T11:05:55.917Z,46.18
2019-03-04T11:06:55.869Z,46.15
2019-03-04T11:07:55.668Z,47.02
2019-03-04T11:08:55.541Z,46.34
2019-03-04T11:09:55.420Z,47.56
2019-03-04T11:10:55.296Z,48.99
2019-03-04T11:11:55.172Z,48.83
2019-03-04T11:12:55.046Z,48.16
2019-03-04T11:13:54.922Z,48.07
2019-03-04T11:14:54.795Z,46.92
2019-03-04T11:15:54.673Z,48.07
2019-03-04T11:16:54.548Z,48.25
2019-03-04T11:17:54.717Z,48.54
2019-03-04T11:18:54.297Z,48.92
2019-03-04T11:19:54.175Z,49.02
2019-03-04T11:20:54.050Z,48.42
2019-03-04T11:21:53.925Z,48.52
2019-03-04T11:22:53.807Z,48.78
2019-03-04T11:23:53.680Z,49.44
2019-03-04T11:24:53.551Z,48.68
2019-03-04T11:25:53.432Z,49.16
2019-03-04T11:26:53.302Z,48.78
2019-03-04T11:27:53.179Z,50.42
2019-03-04T11:28:53.052Z,49.42
2019-03-04T11:29:52.930Z,48.49
2019-03-04T11:30:52.806Z,47.52
2019-03-04T11:31:52.681Z,47.71
2019-03-04T11:32:52.560Z,47.23
2019-03-04T11:33:52.434Z,47.42
2019-03-04T11:34:52.320Z,48.63
2019-03-04T11:35:52.183Z,48.83
2019-03-04T11:36:52.063Z,49.87
2019-03-04T11:37:51.934Z,49.49
2019-03-04T11:38:51.861Z,48.83
2019-03-04T11:39:51.687Z,48.54
2019-03-04T11:40:51.562Z,48.73
2019-03-04T11:41:51.440Z,48.73
2019-03-04T11:42:51.317Z,48.16
2019-03-04T11:43:51.193Z,48.52
2019-03-04T11:44:51.070Z,49.59
2019-03-04T11:45:50.944Z,49.11
2019-03-04T11:46:50.822Z,48.54
2019-03-04T11:47:50.696Z,48.73
2019-03-04T11:48:50.574Z,49.87
2019-03-04T11:49:50.447Z,50.13
2019-03-04T11:50:50.325Z,49.76
2019-03-04T11:51:50.198Z,50.32
2019-03-04T11:52:50.073Z,50.42
2019-03-04T11:53:49.950Z,50.68
2019-03-04T11:54:49.831Z,50.49
2019-03-04T11:55:49.704Z,51.16
2019-03-04T11:56:49.577Z,51.47
2019-03-04T11:57:49.454Z,51.37
2019-03-04T11:58:49.329Z,50.99
2019-03-04T11:59:49.204Z,50.35
2019-03-04T12:00:49.082Z,50.54
2019-03-04T12:01:48.953Z,50.26
2019-03-04T12:02:48.830Z,49.11
2019-03-04T12:03:48.714Z,49.95
2019-03-04T12:04:48.582Z,50.90
2019-03-04T12:05:48.458Z,50.90
2019-03-04T12:06:48.334Z,50.90
2019-03-04T12:07:48.215Z,51.56
2019-03-04T12:08:48.085Z,51.47
2019-03-04T12:09:47.958Z,51.35
2019-03-04T12:10:47.834Z,51.28
2019-03-04T12:11:47.709Z,51.73
2019-03-04T12:12:47.585Z,51.45
2019-03-04T12:13:47.460Z,51.89
2019-03-04T12:14:47.338Z,52.37
2019-03-04T12:15:47.211Z,53.70
2019-03-04T12:16:47.085Z,53.70
2019-03-04T12:17:46.961Z,53.89
2019-03-04T12:18:46.837Z,54.27
2019-03-04T12:19:46.711Z,54.37
2019-03-04T12:20:46.583Z,53.61
2019-03-04T12:21:46.459Z,53.23
2019-03-04T12:22:46.336Z,52.56
2019-03-04T12:23:46.212Z,52.75
2019-03-04T12:24:46.082Z,52.94
2019-03-04T12:25:45.962Z,53.32
2019-03-04T12:26:45.834Z,53.80
2019-03-04T12:27:45.708Z,53.67
2019-03-04T12:28:45.587Z,54.35
2019-03-04T12:29:45.454Z,54.35
2019-03-04T12:30:45.337Z,54.91
2019-03-04T12:31:45.208Z,55.29
2019-03-04T12:32:45.081Z,55.87
2019-03-04T12:33:44.952Z,56.53
2019-03-04T12:34:44.827Z,55.58
2019-03-04T12:35:45.389Z,55.68
2019-03-04T12:36:45.457Z,56.31
2019-03-04T12:37:44.446Z,55.27
2019-03-04T12:38:44.323Z,56.31
2019-03-04T12:39:44.195Z,56.34
2019-03-04T12:40:44.069Z,56.82
2019-03-04T12:41:43.944Z,56.05
2019-03-04T12:42:43.819Z,57.10
2019-03-04T12:43:43.694Z,56.82
2019-03-04T12:44:43.567Z,56.82
2019-03-04T12:45:43.439Z,56.72
2019-03-04T12:46:43.316Z,56.70
2019-03-04T12:47:43.185Z,56.63
2019-03-04T12:48:43.059Z,57.07
2019-03-04T12:49:42.931Z,56.51
2019-03-04T12:50:42.806Z,57.36